createdAt,value
2023-03-15T00:01:16.160Z,99993.56
2023-03-15T00:03:43.353Z,99997.06
2023-03-15T00:06:10.638Z,99989.31
2023-03-15T00:08:37.322Z,99996.38
2023-03-15T00:11:04.201Z,99997.28
2023-03-15T00:13:31.092Z,100005.06
2023-03-15T00:15:59.960Z,100004.13
2023-03-15T00:18:28.402Z,100008.72
2023-03-15T00:20:55.226Z,99997.34
2023-03-15T00:23:22.180Z,100002.50
2023-03-15T00:25:50.480Z,100004.16
2023-03-15T00:28:17.381Z,100001.38
2023-03-15T00:30:44.474Z,100009.41
2023-03-15T00:33:13.783Z,100001.66
2023-03-15T00:35:45.145Z,100010.44
2023-03-15T00:38:12.204Z,100007.84
2023-03-15T00:40:38.659Z,100006.97
2023-03-15T00:43:05.671Z,100017.44
2023-03-15T00:45:32.785Z,100015.56
2023-03-15T00:47:59.427Z,100023.44
2023-03-15T00:50:26.381Z,100032.25
2023-03-15T00:52:52.935Z,100031.28
2023-03-15T00:55:20.175Z,100027.84
2023-03-15T00:57:46.979Z,100027.88
2023-03-15T01:00:20.616Z,100034.94
2023-03-15T01:02:47.723Z,100040.25
2023-03-15T01:05:14.190Z,100035.03
2023-03-15T01:07:41.000Z,100032.41
2023-03-15T01:10:07.932Z,100040.28
2023-03-15T01:12:34.732Z,100037.72
2023-03-15T01:15:02.762Z,100036.84
2023-03-15T01:17:29.187Z,100047.31
2023-03-15T01:19:55.626Z,100043.75
2023-03-15T01:22:22.357Z,100042.88
2023-03-15T01:24:48.778Z,100038.41
2023-03-15T01:27:15.304Z,100036.66
2023-03-15T01:29:41.822Z,100038.31
2023-03-15T01:32:08.760Z,100042.75
2023-03-15T01:34:36.244Z,100042.56
2023-03-15T01:37:05.564Z,100047.97
2023-03-15T01:39:32.270Z,100042.53
2023-03-15T01:41:58.656Z,100051.34
2023-03-15T01:44:53.934Z,100059.34
2023-03-15T01:47:20.567Z,100055.81
2023-03-15T01:49:54.248Z,100051.38
2023-03-15T01:52:25.468Z,100061.06
2023-03-15T01:55:02.412Z,100060.09
2023-03-15T01:57:41.187Z,100054.94
2023-03-15T02:00:17.864Z,100061.03
2023-03-15T02:03:15.200Z,100054.06
2023-03-15T02:05:47.987Z,100057.59
2023-03-15T02:08:17.874Z,100070.78
2023-03-15T02:10:49.392Z,100069.91
2023-03-15T02:13:19.298Z,100074.34
2023-03-15T02:15:46.583Z,100067.44
2023-03-15T02:18:14.630Z,100071.81
2023-03-15T02:20:46.555Z,100076.22
2023-03-15T02:23:15.618Z,100078.81
2023-03-15T02:26:02.136Z,100085.81
2023-03-15T02:28:29.914Z,100090.19
2023-03-15T02:30:57.652Z,100084.94
2023-03-15T02:33:28.104Z,100093.66
2023-03-15T02:35:55.454Z,100088.41
2023-03-15T02:38:24.632Z,100103.19
2023-03-15T02:40:53.265Z,100104.16
2023-03-15T02:43:25.062Z,100103.28
2023-03-15T02:45:51.705Z,100099.78
2023-03-15T02:48:19.170Z,100101.56
2023-03-15T02:50:45.569Z,100097.19
2023-03-15T02:53:12.269Z,100096.31
2023-03-15T02:55:39.149Z,100092.81
2023-03-15T02:58:05.641Z,100103.25
2023-03-15T03:00:32.095Z,100112.84
2023-03-15T03:02:58.582Z,100115.44
2023-03-15T03:05:25.113Z,100114.50
2023-03-15T03:07:51.551Z,100115.38
2023-03-15T03:10:21.176Z,100121.50
2023-03-15T03:12:47.600Z,100117.88
2023-03-15T03:15:14.038Z,100123.03
2023-03-15T03:17:40.468Z,100120.50
2023-03-15T03:20:09.869Z,100123.84
2023-03-15T03:22:37.670Z,100125.56
2023-03-15T03:25:06.195Z,100126.53
2023-03-15T03:27:36.534Z,100128.97
2023-03-15T03:30:08.905Z,100128.09
2023-03-15T03:32:35.844Z,100121.03
2023-03-15T03:35:02.303Z,100132.50
2023-03-15T03:37:30.893Z,100131.84
2023-03-15T03:39:58.255Z,100125.81
2023-03-15T03:42:25.225Z,100130.13
2023-03-15T03:44:53.917Z,100124.88
2023-03-15T03:47:20.778Z,100129.22
2023-03-15T03:49:47.104Z,100135.28
2023-03-15T03:52:13.464Z,100140.59
2023-03-15T03:54:39.817Z,100140.66
2023-03-15T03:57:06.250Z,100152.06
2023-03-15T03:59:32.635Z,100160.81
2023-03-15T04:01:59.075Z,100152.94
2023-03-15T04:04:26.428Z,100165.16
2023-03-15T04:06:54.571Z,100173.91
2023-03-15T04:09:22.024Z,100179.16
2023-03-15T04:11:48.360Z,100175.66
2023-03-15T04:14:14.775Z,100177.47
2023-03-15T04:16:41.509Z,100182.69
2023-03-15T04:19:08.248Z,100179.16
2023-03-15T04:21:34.697Z,100170.41
2023-03-15T04:24:02.013Z,100186.13
2023-03-15T04:26:29.099Z,100179.97
2023-03-15T04:28:57.366Z,100175.59
2023-03-15T04:31:27.036Z,100172.16
2023-03-15T04:33:54.595Z,100177.41
2023-03-15T04:36:22.452Z,100172.09
2023-03-15T04:38:49.195Z,100172.97
2023-03-15T04:41:16.903Z,100174.78
2023-03-15T04:43:44.309Z,100174.72
2023-03-15T04:46:11.402Z,100171.28
2023-03-15T04:48:37.735Z,100178.31
2023-03-15T04:51:04.401Z,100169.56
2023-03-15T04:53:30.842Z,100174.84
2023-03-15T04:55:57.183Z,100176.53
2023-03-15T04:58:23.608Z,100174.78
2023-03-15T05:00:50.071Z,100181.69
2023-03-15T05:03:16.511Z,100180.81
2023-03-15T05:05:44.821Z,100184.31
2023-03-15T05:08:11.684Z,100180.81
2023-03-15T05:10:38.070Z,100180.88
2023-03-15T05:13:04.497Z,100184.31
2023-03-15T05:15:31.032Z,100187.03
2023-03-15T05:17:57.799Z,100182.72
2023-03-15T05:20:25.194Z,100188.00
2023-03-15T05:22:53.400Z,100188.97
2023-03-15T05:25:19.879Z,100192.47
2023-03-15T05:27:46.668Z,100186.38
2023-03-15T05:30:17.183Z,100191.66
2023-03-15T05:32:44.582Z,100192.56
2023-03-15T05:35:12.804Z,100194.31
2023-03-15T05:37:39.601Z,100190.81
2023-03-15T05:40:08.238Z,100193.44
2023-03-15T05:42:35.338Z,100201.34
2023-03-15T05:45:02.060Z,100201.34
2023-03-15T05:47:28.531Z,100213.56
2023-03-15T05:49:54.880Z,100211.81
2023-03-15T05:52:21.245Z,100204.81
2023-03-15T05:54:47.603Z,100210.06
2023-03-15T05:57:14.037Z,100213.56
2023-03-15T05:59:40.446Z,100217.06
2023-03-15T06:02:07.119Z,100214.38
2023-03-15T06:04:33.670Z,100218.78
2023-03-15T06:07:00.178Z,100227.56
2023-03-15T06:09:26.625Z,100226.69
2023-03-15T06:11:53.620Z,100245.94
2023-03-15T06:14:20.062Z,100241.56
2023-03-15T06:16:46.446Z,100249.44
2023-03-15T06:19:13.872Z,100250.31
2023-03-15T06:21:40.309Z,100262.50
2023-03-15T06:24:07.279Z,100259.06
2023-03-15T06:26:33.657Z,100259.91
2023-03-15T06:29:00.143Z,100261.66
2023-03-15T06:31:26.599Z,100257.28
2023-03-15T06:33:53.099Z,100263.41
2023-03-15T06:36:19.551Z,100252.06
2023-03-15T06:38:46.021Z,100262.53
2023-03-15T06:41:14.656Z,100266.91
2023-03-15T06:43:41.513Z,100270.44
2023-03-15T06:46:08.002Z,100275.63
2023-03-15T06:48:34.993Z,100274.84
2023-03-15T06:51:01.473Z,100276.56
2023-03-15T06:53:27.900Z,100279.19
2023-03-15T06:55:54.320Z,100281.81
2023-03-15T06:58:20.736Z,100279.19
2023-03-15T07:00:48.698Z,100291.47
2023-03-15T07:03:15.253Z,100294.94
2023-03-15T07:05:41.662Z,100298.47
2023-03-15T07:08:08.023Z,100293.19
2023-03-15T07:10:34.517Z,100298.44
2023-03-15T07:13:00.999Z,100302.81
2023-03-15T07:15:28.465Z,100296.72
2023-03-15T07:17:54.860Z,100306.34
2023-03-15T07:20:21.247Z,100307.22
2023-03-15T07:22:47.717Z,100308.88
2023-03-15T07:25:14.386Z,100304.50
2023-03-15T07:27:40.754Z,100316.75
2023-03-15T07:30:09.526Z,100317.69
2023-03-15T07:32:36.050Z,100323.81
2023-03-15T07:35:02.559Z,100327.31
2023-03-15T07:37:29.269Z,100329.06
2023-03-15T07:39:55.752Z,100329.94
2023-03-15T07:42:22.156Z,100332.50
2023-03-15T07:44:48.595Z,100336.97
2023-03-15T07:47:14.967Z,100340.47
2023-03-15T07:49:41.557Z,100333.41
2023-03-15T07:52:08.403Z,100331.66
2023-03-15T07:54:34.827Z,100320.25
2023-03-15T07:57:01.259Z,100329.88
2023-03-15T07:59:27.840Z,100331.59
2023-03-15T08:01:54.567Z,100338.63
2023-03-15T08:04:21.181Z,100345.59
2023-03-15T08:06:47.598Z,100339.47
2023-03-15T08:09:14.096Z,100345.59
2023-03-15T08:11:41.287Z,100347.38
2023-03-15T08:14:08.698Z,100347.25
2023-03-15T08:16:35.204Z,100345.59
2023-03-15T08:19:01.593Z,100344.63
2023-03-15T08:21:28.003Z,100334.94
2023-03-15T08:23:54.365Z,100344.47
2023-03-15T08:26:20.782Z,100340.97
2023-03-15T08:28:47.178Z,100345.28
2023-03-15T08:31:13.857Z,100350.72
2023-03-15T08:33:40.566Z,100356.81
2023-03-15T08:36:07.266Z,100362.06
2023-03-15T08:38:33.919Z,100363.72
2023-03-15T08:41:00.507Z,100364.66
2023-03-15T08:43:26.982Z,100362.94
2023-03-15T08:46:01.881Z,100373.53
2023-03-15T08:48:29.566Z,100376.00
2023-03-15T08:50:57.365Z,100384.69
2023-03-15T08:53:23.763Z,100386.69
2023-03-15T08:55:50.164Z,100389.22
2023-03-15T08:58:16.717Z,100383.09
2023-03-15T09:00:43.077Z,100381.97
2023-03-15T09:03:09.952Z,100394.38
2023-03-15T09:05:36.996Z,100378.41
2023-03-15T09:08:03.637Z,100381.78
2023-03-15T09:10:29.979Z,100388.84
2023-03-15T09:12:56.466Z,100396.78
2023-03-15T09:15:23.293Z,100406.56
2023-03-15T09:17:51.514Z,100400.53
2023-03-15T09:20:19.828Z,100408.31
2023-03-15T09:22:51.861Z,100413.53
2023-03-15T09:25:18.659Z,100419.66
2023-03-15T09:27:45.237Z,100419.66
2023-03-15T09:30:12.415Z,100409.81
2023-03-15T09:32:38.901Z,100427.06
2023-03-15T09:35:07.754Z,100422.06
2023-03-15T09:37:35.226Z,100426.19
2023-03-15T09:40:02.093Z,100423.91
2023-03-15T09:42:34.362Z,100427.09
2023-03-15T09:45:41.199Z,100418.94
2023-03-15T09:48:16.747Z,100422.19
2023-03-15T09:50:54.752Z,100428.88
2023-03-15T09:53:31.951Z,100423.44
2023-03-15T09:55:58.743Z,100429.53
2023-03-15T09:58:32.408Z,100427.97
2023-03-15T10:01:13.021Z,100429.91
2023-03-15T10:03:53.479Z,100435.41
2023-03-15T10:06:27.149Z,100435.63
2023-03-15T10:08:59.436Z,100432.75
2023-03-15T10:11:41.099Z,100430.69
2023-03-15T10:14:19.338Z,100442.00
2023-03-15T10:16:47.856Z,100441.00
2023-03-15T10:19:35.443Z,100429.38
2023-03-15T10:22:25.441Z,100436.41
2023-03-15T10:25:13.260Z,100429.97
2023-03-15T10:27:45.898Z,100438.34
2023-03-15T10:30:17.277Z,100445.50
2023-03-15T10:32:45.964Z,100438.50
2023-03-15T10:35:17.687Z,100436.50
2023-03-15T10:37:44.756Z,100445.38
2023-03-15T10:40:16.249Z,100445.16
2023-03-15T10:42:44.833Z,100440.56
2023-03-15T10:45:21.285Z,100437.44
2023-03-15T10:47:57.725Z,100432.91
2023-03-15T10:50:32.148Z,100431.75
2023-03-15T10:53:01.490Z,100432.94
2023-03-15T10:55:36.809Z,100430.84
2023-03-15T10:58:40.665Z,100435.06
2023-03-15T11:01:11.840Z,100443.75
2023-03-15T11:03:38.827Z,100437.94
2023-03-15T11:06:21.029Z,100438.72
2023-03-15T11:08:47.377Z,100437.66
2023-03-15T11:11:13.740Z,100440.44
2023-03-15T11:13:41.896Z,100446.47
2023-03-15T11:16:14.384Z,100446.34
2023-03-15T11:18:53.351Z,100452.72
2023-03-15T11:21:22.891Z,100448.22
2023-03-15T11:23:51.094Z,100445.28
2023-03-15T11:26:32.232Z,100443.91
2023-03-15T11:29:07.419Z,100453.34
2023-03-15T11:31:35.541Z,100453.03
2023-03-15T11:34:05.569Z,100454.41
2023-03-15T11:36:35.908Z,100459.22
2023-03-15T11:39:04.632Z,100451.56
2023-03-15T11:41:42.842Z,100447.19
2023-03-15T11:44:34.164Z,100460.91
2023-03-15T11:47:16.608Z,100462.13
2023-03-15T11:49:48.662Z,100468.00
2023-03-15T11:52:17.123Z,100472.44
2023-03-15T11:54:45.764Z,100472.50
2023-03-15T11:57:42.385Z,100485.44
2023-03-15T12:00:18.113Z,100496.44
2023-03-15T12:02:59.487Z,100490.53
2023-03-15T12:06:01.241Z,100494.66
2023-03-15T12:08:34.515Z,100501.78
2023-03-15T12:11:01.588Z,100493.44
2023-03-15T12:13:30.723Z,100495.19
2023-03-15T12:15:58.561Z,100497.66
2023-03-15T12:18:31.104Z,100505.81
2023-03-15T12:21:14.561Z,100501.31
2023-03-15T12:23:46.453Z,100512.72
2023-03-15T12:26:24.544Z,100509.97
2023-03-15T12:29:03.956Z,100511.94
2023-03-15T12:31:57.835Z,100507.72
2023-03-15T12:34:42.278Z,100505.91
2023-03-15T12:37:15.294Z,100500.22
2023-03-15T12:39:51.345Z,100507.31
2023-03-15T12:42:31.193Z,100512.41
2023-03-15T12:45:15.619Z,100505.75
2023-03-15T12:47:51.559Z,100503.78
2023-03-15T12:50:45.782Z,100513.06
2023-03-15T12:53:24.721Z,100514.72
2023-03-15T12:55:56.632Z,100506.38
2023-03-15T12:58:35.537Z,100516.19
2023-03-15T13:01:05.338Z,100522.63
2023-03-15T13:03:35.648Z,100531.09
2023-03-15T13:06:19.518Z,100549.19
2023-03-15T13:09:09.057Z,100536.94
2023-03-15T13:11:53.154Z,100537.94
2023-03-15T13:14:59.675Z,100527.94
2023-03-15T13:17:41.554Z,100525.19
2023-03-15T13:20:45.452Z,100524.47
2023-03-15T13:23:26.124Z,100518.91
2023-03-15T13:26:17.521Z,100509.09
2023-03-15T13:28:58.995Z,100518.41
2023-03-15T13:31:29.992Z,100509.97
2023-03-15T13:34:10.084Z,100503.88
2023-03-15T13:36:46.014Z,100509.94
2023-03-15T13:39:33.530Z,100510.97
2023-03-15T13:42:17.917Z,100495.81
2023-03-15T13:44:44.332Z,100496.41
2023-03-15T13:47:21.934Z,100502.16
2023-03-15T13:49:52.262Z,100502.84
2023-03-15T13:52:18.704Z,100500.31
2023-03-15T13:54:45.724Z,100496.94
2023-03-15T13:57:23.338Z,100495.91
2023-03-15T14:00:00.686Z,100496.13
2023-03-15T14:02:54.082Z,100497.00
2023-03-15T14:05:27.448Z,100497.91
2023-03-15T14:08:15.352Z,100502.19
2023-03-15T14:10:45.627Z,100503.81
2023-03-15T14:13:21.128Z,100506.69
2023-03-15T14:15:48.105Z,100492.75
2023-03-15T14:18:24.127Z,100497.03
2023-03-15T14:20:59.942Z,100493.34
2023-03-15T14:23:28.231Z,100497.84
2023-03-15T14:26:11.107Z,100490.84
2023-03-15T14:28:39.369Z,100498.25
2023-03-15T14:31:06.502Z,100501.69
2023-03-15T14:33:40.704Z,100492.31
2023-03-15T14:36:22.394Z,100493.56
2023-03-15T14:38:58.150Z,100502.91
2023-03-15T14:41:27.293Z,100500.69
2023-03-15T14:43:53.944Z,100504.38
2023-03-15T14:46:21.073Z,100506.41
2023-03-15T14:48:49.951Z,100508.50
2023-03-15T14:51:19.714Z,100513.34
2023-03-15T14:53:48.326Z,100517.59
2023-03-15T14:56:15.354Z,100520.53
2023-03-15T14:58:42.629Z,100521.06
2023-03-15T15:01:13.811Z,100514.19
2023-03-15T15:03:48.118Z,100524.38
2023-03-15T15:06:15.932Z,100524.47
2023-03-15T15:08:45.639Z,100512.94
2023-03-15T15:11:12.106Z,100534.13
2023-03-15T15:13:40.053Z,100534.84
2023-03-15T15:16:06.995Z,100539.47
2023-03-15T15:18:35.703Z,100539.91
2023-03-15T15:21:11.356Z,100544.59
2023-03-15T15:23:54.906Z,100552.53
2023-03-15T15:26:26.265Z,100551.66
2023-03-15T15:28:53.226Z,100558.34
2023-03-15T15:31:22.770Z,100555.59
2023-03-15T15:33:50.336Z,100546.97
2023-03-15T15:36:22.603Z,100556.59
2023-03-15T15:38:49.676Z,100548.34
2023-03-15T15:41:21.934Z,100555.28
2023-03-15T15:43:48.328Z,100544.81
2023-03-15T15:46:14.858Z,100545.69
2023-03-15T15:48:41.809Z,100543.91
2023-03-15T15:51:38.644Z,100550.94
2023-03-15T15:54:05.874Z,100550.84
2023-03-15T15:56:35.522Z,100557.75
2023-03-15T15:59:04.625Z,100551.78
2023-03-15T16:01:31.630Z,100560.16
2023-03-15T16:03:58.815Z,100559.50
2023-03-15T16:06:25.275Z,100556.97
2023-03-15T16:08:52.895Z,100557.28
2023-03-15T16:11:20.657Z,100547.56
2023-03-15T16:13:50.265Z,100551.81
2023-03-15T16:16:17.982Z,100558.03
2023-03-15T16:18:44.883Z,100559.34
2023-03-15T16:21:26.419Z,100565.19
2023-03-15T16:24:00.735Z,100563.63
2023-03-15T16:26:27.668Z,100559.47
2023-03-15T16:28:54.343Z,100562.66
2023-03-15T16:31:22.026Z,100563.56
2023-03-15T16:33:49.800Z,100562.91
2023-03-15T16:36:21.733Z,100565.78
2023-03-15T16:38:48.911Z,100565.72
2023-03-15T16:41:16.813Z,100559.56
2023-03-15T16:43:44.258Z,100572.69
2023-03-15T16:46:15.976Z,100578.09
2023-03-15T16:48:43.216Z,100576.56
2023-03-15T16:51:13.952Z,100583.75
2023-03-15T16:53:44.537Z,100573.28
2023-03-15T16:56:13.350Z,100580.97
2023-03-15T16:58:40.280Z,100584.63
2023-03-15T17:01:11.522Z,100582.66
2023-03-15T17:03:38.145Z,100582.16
2023-03-15T17:06:04.691Z,100583.75
2023-03-15T17:08:32.283Z,100584.03
2023-03-15T17:10:58.977Z,100586.84
2023-03-15T17:13:29.736Z,100594.78
2023-03-15T17:15:56.253Z,100600.16
2023-03-15T17:18:23.987Z,100598.41
2023-03-15T17:20:50.674Z,100598.50
2023-03-15T17:23:19.632Z,100605.63
2023-03-15T17:25:46.311Z,100599.41
2023-03-15T17:28:12.786Z,100604.81
2023-03-15T17:30:39.279Z,100601.34
2023-03-15T17:33:06.086Z,100602.25
2023-03-15T17:35:54.685Z,100602.16
2023-03-15T17:38:21.759Z,100611.13
2023-03-15T17:40:48.356Z,100608.50
2023-03-15T17:43:16.450Z,100612.22
2023-03-15T17:45:43.002Z,100614.88
2023-03-15T17:48:10.082Z,100623.69
2023-03-15T17:50:37.590Z,100626.34
2023-03-15T17:53:14.918Z,100630.84
2023-03-15T17:55:41.282Z,100625.56
2023-03-15T17:58:16.237Z,100631.72
2023-03-15T18:00:43.525Z,100638.75
2023-03-15T18:03:13.121Z,100645.75
2023-03-15T18:05:39.619Z,100647.53
2023-03-15T18:08:08.024Z,100649.28
2023-03-15T18:10:36.926Z,100655.41
2023-03-15T18:13:04.159Z,100658.97
2023-03-15T18:15:30.790Z,100656.31
2023-03-15T18:17:57.251Z,100664.19
2023-03-15T18:20:24.186Z,100660.69
2023-03-15T18:22:51.370Z,100663.31
2023-03-15T18:25:22.048Z,100675.59
2023-03-15T18:27:49.433Z,100673.84
2023-03-15T18:30:18.870Z,100673.84
2023-03-15T18:32:45.518Z,100670.34
2023-03-15T18:35:17.966Z,100668.56
2023-03-15T18:37:45.382Z,100664.19
2023-03-15T18:40:13.753Z,100675.59
2023-03-15T18:42:41.711Z,100667.69
2023-03-15T18:45:18.451Z,100667.72
2023-03-15T18:47:45.574Z,100674.72
2023-03-15T18:50:12.983Z,100666.75
2023-03-15T18:52:40.254Z,100677.28
2023-03-15T18:55:07.807Z,100667.63
2023-03-15T18:57:35.491Z,100671.13
2023-03-15T19:00:01.995Z,100669.38
2023-03-15T19:02:28.568Z,100676.44
2023-03-15T19:04:58.352Z,100672.00
2023-03-15T19:07:25.673Z,100680.78
2023-03-15T19:09:52.446Z,100687.84
2023-03-15T19:12:18.821Z,100686.03
2023-03-15T19:14:45.280Z,100688.69
2023-03-15T19:17:11.789Z,100695.72
2023-03-15T19:19:38.256Z,100694.81
2023-03-15T19:22:04.633Z,100702.72
2023-03-15T19:24:33.003Z,100703.59
2023-03-15T19:26:59.404Z,100712.31
2023-03-15T19:29:25.803Z,100706.03
2023-03-15T19:31:52.213Z,100711.38
2023-03-15T19:34:18.588Z,100714.88
2023-03-15T19:36:44.922Z,100715.69
2023-03-15T19:39:12.279Z,100719.09
2023-03-15T19:41:38.723Z,100713.78
2023-03-15T19:44:07.946Z,100714.47
2023-03-15T19:46:34.464Z,100714.34
2023-03-15T19:49:02.201Z,100716.09
2023-03-15T19:51:28.935Z,100724.94
2023-03-15T19:53:56.456Z,100721.38
2023-03-15T19:56:23.206Z,100715.19
2023-03-15T19:58:49.789Z,100717.97
2023-03-15T20:01:16.538Z,100705.78
2023-03-15T20:03:42.968Z,100720.69
2023-03-15T20:06:15.062Z,100717.19
2023-03-15T20:08:42.702Z,100725.03
2023-03-15T20:11:12.129Z,100726.72
2023-03-15T20:13:38.542Z,100735.41
2023-03-15T20:16:06.316Z,100735.38
2023-03-15T20:18:32.719Z,100732.72
2023-03-15T20:20:59.256Z,100730.13
2023-03-15T20:23:25.796Z,100729.16
2023-03-15T20:26:02.494Z,100737.81
2023-03-15T20:28:28.965Z,100733.50
2023-03-15T20:30:55.382Z,100736.84
2023-03-15T20:33:22.100Z,100742.25
2023-03-15T20:35:48.577Z,100742.34
2023-03-15T20:38:15.043Z,100744.03
2023-03-15T20:40:41.375Z,100748.53
2023-03-15T20:43:07.875Z,100753.50
2023-03-15T20:45:34.556Z,100749.03
2023-03-15T20:48:01.093Z,100750.84
2023-03-15T20:50:27.456Z,100752.38
2023-03-15T20:52:53.900Z,100750.56
2023-03-15T20:55:21.068Z,100753.25
2023-03-15T20:57:47.452Z,100751.44
2023-03-15T21:00:18.206Z,100757.47
2023-03-15T21:02:46.250Z,100749.50
2023-03-15T21:05:16.115Z,100752.00
2023-03-15T21:07:43.183Z,100743.84
2023-03-15T21:10:13.529Z,100753.41
2023-03-15T21:12:40.186Z,100742.06
2023-03-15T21:15:07.129Z,100751.69
2023-03-15T21:17:33.556Z,100756.97
2023-03-15T21:20:00.611Z,100756.94
2023-03-15T21:22:26.961Z,100755.28
2023-03-15T21:24:56.225Z,100755.88
2023-03-15T21:27:25.948Z,100749.88
2023-03-15T21:29:52.509Z,100751.75
2023-03-15T21:32:18.856Z,100749.91
2023-03-15T21:34:45.217Z,100758.31
2023-03-15T21:37:11.627Z,100760.06
2023-03-15T21:39:38.401Z,100761.75
2023-03-15T21:42:05.150Z,100754.06
2023-03-15T21:44:33.844Z,100761.03
2023-03-15T21:47:01.980Z,100761.16
2023-03-15T21:49:28.508Z,100770.72
2023-03-15T21:51:54.947Z,100765.09
2023-03-15T21:54:21.361Z,100759.03
2023-03-15T21:56:47.778Z,100764.38
2023-03-15T21:59:14.641Z,100760.69
2023-03-15T22:01:41.652Z,100763.47
2023-03-15T22:04:08.122Z,100762.59
2023-03-15T22:06:34.555Z,100759.09
2023-03-15T22:09:00.956Z,100753.88
2023-03-15T22:11:27.424Z,100758.91
2023-03-15T22:13:53.800Z,100763.41
2023-03-15T22:16:20.364Z,100752.88
2023-03-15T22:18:46.807Z,100750.94
2023-03-15T22:21:13.247Z,100746.50
2023-03-15T22:23:39.589Z,100743.00
2023-03-15T22:26:06.148Z,100744.34
2023-03-15T22:28:33.111Z,100740.16
2023-03-15T22:30:59.545Z,100735.03
2023-03-15T22:33:25.925Z,100736.13
2023-03-15T22:35:57.533Z,100751.53
2023-03-15T22:38:25.587Z,100746.38
2023-03-15T22:41:00.549Z,100745.25
2023-03-15T22:43:27.028Z,100742.63
2023-03-15T22:45:53.426Z,100749.44
2023-03-15T22:48:19.829Z,100747.69
2023-03-15T22:50:46.225Z,100744.94
2023-03-15T22:53:12.605Z,100749.13
2023-03-15T22:55:38.985Z,100754.53
2023-03-15T22:58:05.341Z,100754.41
2023-03-15T23:00:31.965Z,100757.56
2023-03-15T23:02:58.324Z,100757.56
2023-03-15T23:05:25.094Z,100749.97
2023-03-15T23:07:51.819Z,100748.03
2023-03-15T23:10:18.137Z,100756.09
2023-03-15T23:12:44.534Z,100753.53
2023-03-15T23:15:13.215Z,100756.72
2023-03-15T23:17:40.273Z,100752.31
2023-03-15T23:20:07.556Z,100755.88
2023-03-15T23:22:34.118Z,100752.38
2023-03-15T23:25:00.624Z,100750.63
2023-03-15T23:27:27.028Z,100745.81
2023-03-15T23:29:54.806Z,100746.75
2023-03-15T23:32:23.174Z,100748.44
2023-03-15T23:34:49.658Z,100753.44
2023-03-15T23:37:16.193Z,100743.84
2023-03-15T23:39:43.198Z,100750.94
2023-03-15T23:42:10.187Z,100751.78
2023-03-15T23:44:36.626Z,100753.59
2023-03-15T23:47:03.489Z,100757.72
2023-03-15T23:49:29.902Z,100752.56
2023-03-15T23:51:56.380Z,100749.81
2023-03-15T23:54:23.512Z,100753.16
2023-03-15T23:56:50.091Z,100755.81
2023-03-15T23:59:17.223Z,100755.09
